Lone Jack, Missouri
Current Conditions -  °F | °C
As of 6:53 AM on Monday 22 Dec 2014 (Local Time) from KLXT Reporting Station
Light Rain Light Rain  
Wind Chill: 37°   Ceiling: 500
Heat Index: 42°   Visibility: 7mi
Dew Point: 40°   Wind: 8mph
Humidity: 92%   Direction: 160°SSE
Pressure: 29.62"   Gusts: NA
Location:  38.87°N, 94.17°W
Report Text: KLXT 221253Z AUTO 16007KT 7SM -RA OVC005 06/04 A2962 RMK AO2 RAB23 SLP034 P0000 T00560044 TSNO
Loading
Personal Weather Stations






























Interactive Weather Map New forecast layout! Learn more

10-Day Weather Forecast

Advertisements
Track Severe Weather on mobile